Time;durP1;ratioP1;P1;durP2;ratioP2;P2;SDS_P1;SDS_P2;PMS_P1;PMS_P2;Temp;Humidity;BMP_temperature;BMP_pressure;BME280_temperature;BME280_humidity;BME280_pressure;Samples;Min_cycle;Max_cycle;Signal;HPM_P1;HPM_P2
2021/04/15 00:01:23;;;;;;;4.40;0.80;;;3.50;92.50;;;;;;4815027;29;20061;-76
2021/04/15 00:03:50;;;;;;;5.20;0.73;;;3.50;92.60;;;;;;4813376;29;20834;-76
2021/04/15 00:06:22;;;;;;;4.00;0.77;;;3.50;92.70;;;;;;4793950;29;20046;-76
2021/04/15 00:08:49;;;;;;;4.85;0.82;;;3.60;92.80;;;;;;4817062;29;20486;-77
2021/04/15 00:11:18;;;;;;;4.50;0.73;;;3.60;92.70;;;;;;4815027;29;20045;-77
2021/04/15 00:13:48;;;;;;;1.93;0.50;;;3.60;92.80;;;;;;4814864;29;20035;-76
2021/04/15 00:16:15;;;;;;;1.47;0.40;;;3.70;92.90;;;;;;4815960;29;20053;-77
2021/04/15 00:18:42;;;;;;;3.63;0.40;;;3.70;93.00;;;;;;4817371;29;20046;-76
2021/04/15 00:21:10;;;;;;;0.97;0.40;;;3.70;93.00;;;;;;4813551;29;20042;-76
2021/04/15 00:23:37;;;;;;;3.17;0.50;;;3.80;93.00;;;;;;4815132;29;20066;-77
2021/04/15 00:26:05;;;;;;;2.60;0.50;;;3.80;92.90;;;;;;4816547;29;20493;-77
2021/04/15 00:28:32;;;;;;;2.97;0.63;;;3.80;92.90;;;;;;4815132;29;20054;-77
2021/04/15 00:30:59;;;;;;;1.27;0.40;;;3.80;93.00;;;;;;4799162;29;20045;-76
2021/04/15 00:33:26;;;;;;;3.43;0.40;;;3.80;93.10;;;;;;4815937;29;20046;-76
2021/04/15 00:35:53;;;;;;;3.17;0.50;;;3.80;93.10;;;;;;4798155;29;20046;-77
2021/04/15 00:38:22;;;;;;;4.57;0.40;;;3.70;93.40;;;;;;4818261;29;20382;-76
2021/04/15 00:40:50;;;;;;;1.83;0.30;;;3.60;93.50;;;;;;4815465;29;20058;-76
2021/04/15 00:43:20;;;;;;;1.60;0.40;;;3.70;93.60;;;;;;4814770;29;20049;-76
2021/04/15 00:45:47;;;;;;;2.53;0.30;;;3.60;93.70;;;;;;4815751;29;20060;-76
2021/04/15 00:48:34;;;;;;;1.20;0.20;;;3.70;93.90;;;;;;4814391;29;20062;-76
2021/04/15 00:51:21;;;;;;;1.00;0.20;;;3.70;94.10;;;;;;4814699;29;20039;-76
2021/04/15 00:54:17;;;;;;;1.17;0.17;;;3.70;94.10;;;;;;4813516;29;20042;-76
2021/04/15 00:56:43;;;;;;;1.37;0.30;;;3.70;94.40;;;;;;4810004;29;20081;-76
2021/04/15 00:59:11;;;;;;;2.30;0.17;;;3.70;94.70;;;;;;4800303;29;20038;-76
2021/04/15 01:01:38;;;;;;;2.13;0.20;;;3.70;94.50;;;;;;4813258;29;20042;-76
2021/04/15 01:04:05;;;;;;;2.23;0.20;;;3.70;94.50;;;;;;4798099;29;20376;-77
2021/04/15 01:06:32;;;;;;;1.33;0.20;;;3.70;94.40;;;;;;4813605;29;20043;-76
2021/04/15 01:09:00;;;;;;;0.60;0.10;;;3.70;94.50;;;;;;4814578;29;20065;-77
2021/04/15 01:11:35;;;;;;;1.40;0.20;;;3.70;94.60;;;;;;4813076;29;20057;-77
2021/04/15 01:14:32;;;;;;;1.57;0.23;;;3.70;94.60;;;;;;4815876;29;20046;-76
2021/04/15 01:17:34;;;;;;;3.27;0.13;;;3.70;94.70;;;;;;4813932;29;20054;-76
2021/04/15 01:20:06;;;;;;;0.90;0.20;;;3.70;94.80;;;;;;4813374;29;20065;-76
2021/04/15 01:23:15;;;;;;;0.97;0.20;;;3.70;94.90;;;;;;4800226;29;20053;-76
2021/04/15 01:26:02;;;;;;;2.03;0.20;;;3.70;95.10;;;;;;4762112;30;20239;-76
2021/04/15 01:28:53;;;;;;;1.57;0.30;;;3.70;95.20;;;;;;4775411;29;20047;-76
2021/04/15 01:31:33;;;;;;;2.50;0.20;;;3.60;95.50;;;;;;4798694;29;20050;-76
2021/04/15 01:34:06;;;;;;;2.10;0.20;;;3.50;95.60;;;;;;4815104;29;20038;-76
2021/04/15 01:36:44;;;;;;;0.88;0.20;;;3.50;95.70;;;;;;4826094;29;20049;-76
2021/04/15 01:39:16;;;;;;;0.77;0.10;;;3.40;95.90;;;;;;4813747;29;20513;-76
2021/04/15 01:41:51;;;;;;;0.93;0.10;;;3.40;95.90;;;;;;4813139;29;20035;-77
2021/04/15 01:44:21;;;;;;;1.27;0.20;;;3.30;96.00;;;;;;4813476;29;20042;-76
2021/04/15 01:46:54;;;;;;;0.70;0.20;;;3.30;96.00;;;;;;4813049;29;20476;-76
2021/04/15 01:49:22;;;;;;;3.58;0.30;;;3.30;96.10;;;;;;4812714;29;20047;-76
2021/04/15 01:51:51;;;;;;;0.70;0.20;;;3.30;96.10;;;;;;4790263;29;20039;-76
2021/04/15 01:54:37;;;;;;;1.00;0.20;;;3.30;96.10;;;;;;4816845;29;20030;-76
2021/04/15 01:57:23;;;;;;;0.60;0.10;;;3.30;96.10;;;;;;4813822;29;20059;-76
2021/04/15 02:00:06;;;;;;;0.50;0.10;;;3.30;96.10;;;;;;4814711;29;20488;-76
2021/04/15 02:02:48;;;;;;;0.73;0.20;;;3.20;96.10;;;;;;4815418;29;20042;-76
2021/04/15 02:05:23;;;;;;;1.77;0.10;;;3.20;96.10;;;;;;4813025;29;20517;-77
2021/04/15 02:07:58;;;;;;;0.37;0.10;;;3.20;96.10;;;;;;4814349;29;20061;-76
2021/04/15 02:10:26;;;;;;;0.67;0.10;;;3.20;96.10;;;;;;4796257;29;20137;-76
2021/04/15 02:12:56;;;;;;;2.07;0.20;;;3.30;96.20;;;;;;4812516;29;20043;-76
2021/04/15 02:15:32;;;;;;;0.60;0.10;;;3.30;96.20;;;;;;4814590;29;20037;-76
2021/04/15 02:18:08;;;;;;;0.53;0.10;;;3.30;96.20;;;;;;4811270;29;20059;-76
2021/04/15 02:20:35;;;;;;;0.70;0.20;;;3.40;96.10;;;;;;4811803;29;20046;-77
2021/04/15 02:23:26;;;;;;;0.40;0.10;;;3.50;96.10;;;;;;4812010;29;20043;-76
2021/04/15 02:26:05;;;;;;;2.43;0.20;;;3.50;96.10;;;;;;4811996;29;20054;-76
2021/04/15 02:28:43;;;;;;;1.57;0.20;;;3.50;96.10;;;;;;4811547;29;20050;-76
2021/04/15 02:31:15;;;;;;;0.87;0.20;;;3.50;96.10;;;;;;4812336;29;20030;-76
2021/04/15 02:33:52;;;;;;;0.70;0.20;;;3.60;96.10;;;;;;4812933;29;20049;-76
2021/04/15 02:36:21;;;;;;;1.43;0.20;;;3.60;96.20;;;;;;4812595;29;20509;-76
2021/04/15 02:38:56;;;;;;;2.23;0.17;;;3.60;96.20;;;;;;4812627;29;20047;-76
2021/04/15 02:41:27;;;;;;;3.40;0.20;;;3.60;96.30;;;;;;4814998;29;20043;-77
2021/04/15 02:44:05;;;;;;;0.73;0.20;;;3.60;96.60;;;;;;4816989;29;20371;-76
2021/04/15 02:46:40;;;;;;;2.03;0.20;;;3.70;96.30;;;;;;4816409;29;20046;-76
2021/04/15 02:49:10;;;;;;;1.70;0.20;;;3.70;96.30;;;;;;4818010;29;20051;-76
2021/04/15 02:51:58;;;;;;;1.00;0.20;;;3.70;96.40;;;;;;4816624;29;20038;-76
2021/04/15 02:54:29;;;;;;;1.47;0.33;;;3.80;96.40;;;;;;4817130;29;20034;-77
2021/04/15 02:57:05;;;;;;;1.30;0.40;;;3.80;96.40;;;;;;4815655;29;20037;-76
2021/04/15 02:59:43;;;;;;;1.10;0.30;;;3.80;96.50;;;;;;4816805;29;20404;-76
2021/04/15 03:02:15;;;;;;;0.60;0.27;;;3.90;96.50;;;;;;4814527;29;20054;-76
2021/04/15 03:04:49;;;;;;;1.40;0.32;;;3.90;96.50;;;;;;4816866;29;20053;-76
2021/04/15 03:07:16;;;;;;;1.00;0.40;;;3.90;96.50;;;;;;4829839;29;20037;-76
2021/04/15 03:09:43;;;;;;;1.27;0.20;;;3.90;96.60;;;;;;4816063;29;20046;-76
2021/04/15 03:12:18;;;;;;;1.97;0.30;;;3.90;96.60;;;;;;4816290;29;20061;-76
2021/04/15 03:15:05;;;;;;;2.20;0.30;;;3.90;96.60;;;;;;4812559;29;20046;-76
2021/04/15 03:17:34;;;;;;;0.77;0.20;;;3.90;96.70;;;;;;4791826;29;20058;-76
2021/04/15 03:20:05;;;;;;;1.40;0.30;;;3.90;96.60;;;;;;4816730;29;20058;-76
2021/04/15 03:22:46;;;;;;;0.80;0.20;;;3.80;96.70;;;;;;4815985;29;20553;-76
2021/04/15 03:25:13;;;;;;;0.77;0.20;;;3.70;96.70;;;;;;4817073;29;20050;-76
2021/04/15 03:27:55;;;;;;;1.00;0.20;;;3.60;96.80;;;;;;4814395;29;20046;-76
2021/04/15 03:30:56;;;;;;;1.80;0.30;;;3.50;96.90;;;;;;4812704;29;20053;-76
2021/04/15 03:33:35;;;;;;;0.50;0.20;;;3.40;97.00;;;;;;4797984;29;20050;-76
2021/04/15 03:36:18;;;;;;;1.37;0.20;;;3.30;97.00;;;;;;4813595;29;20398;-76
2021/04/15 03:38:59;;;;;;;1.70;0.20;;;3.20;97.10;;;;;;4815390;29;20043;-76
2021/04/15 03:41:45;;;;;;;1.10;0.30;;;3.20;97.20;;;;;;4812930;29;20587;-76
2021/04/15 03:44:14;;;;;;;2.57;0.40;;;3.10;97.30;;;;;;4813489;29;20057;-76
2021/04/15 03:47:04;;;;;;;1.40;0.40;;;3.00;97.30;;;;;;4815426;29;20744;-76
2021/04/15 03:49:52;;;;;;;1.40;0.40;;;2.90;97.30;;;;;;4816323;29;20494;-76
2021/04/15 03:52:24;;;;;;;1.20;0.40;;;2.90;97.40;;;;;;4814746;29;20047;-76
2021/04/15 03:55:08;;;;;;;1.87;0.50;;;2.80;97.50;;;;;;4816528;29;20081;-76
2021/04/15 03:57:36;;;;;;;0.97;0.40;;;2.70;97.60;;;;;;4816641;29;20049;-76
2021/04/15 04:00:16;;;;;;;1.50;0.40;;;2.70;97.60;;;;;;4800091;29;20042;-76
2021/04/15 04:02:49;;;;;;;1.33;0.50;;;2.60;97.60;;;;;;4814515;29;20093;-76
2021/04/15 04:05:25;;;;;;;1.77;0.57;;;2.60;97.70;;;;;;4800269;29;20034;-76
2021/04/15 04:07:57;;;;;;;1.50;0.50;;;2.50;97.70;;;;;;4814340;29;20042;-76
2021/04/15 04:10:30;;;;;;;4.00;0.90;;;2.50;97.80;;;;;;4813347;29;20065;-76
2021/04/15 04:13:22;;;;;;;1.45;0.60;;;2.50;97.90;;;;;;4816802;29;20046;-76
2021/04/15 04:15:53;;;;;;;1.50;0.80;;;2.50;97.90;;;;;;4815658;29;20042;-76
2021/04/15 04:18:29;;;;;;;2.60;0.70;;;2.50;97.80;;;;;;4816194;29;20050;-76
2021/04/15 04:21:05;;;;;;;2.00;0.70;;;2.40;97.80;;;;;;4815540;29;20042;-76
2021/04/15 04:23:43;;;;;;;2.93;0.83;;;2.40;97.80;;;;;;4816391;29;20600;-77
2021/04/15 04:26:28;;;;;;;2.27;1.00;;;2.40;97.80;;;;;;4812906;29;20050;-76
2021/04/15 04:29:22;;;;;;;2.37;0.70;;;2.30;97.80;;;;;;4815241;29;20042;-76
2021/04/15 04:31:53;;;;;;;2.93;0.70;;;2.20;97.90;;;;;;4813107;29;20049;-77
2021/04/15 04:34:23;;;;;;;1.70;0.80;;;2.20;97.90;;;;;;4813827;29;20517;-76
2021/04/15 04:36:52;;;;;;;2.80;1.10;;;2.10;97.90;;;;;;4815515;29;20038;-76
2021/04/15 04:39:20;;;;;;;2.17;0.80;;;2.00;98.00;;;;;;4816896;29;20494;-76
2021/04/15 04:41:55;;;;;;;2.27;0.70;;;2.00;98.00;;;;;;4812562;29;20046;-76
2021/04/15 04:44:32;;;;;;;2.13;1.03;;;2.00;98.10;;;;;;4815290;29;20387;-76
2021/04/15 04:47:13;;;;;;;4.33;1.30;;;2.00;98.10;;;;;;4812773;29;20050;-76
2021/04/15 04:49:44;;;;;;;3.83;1.40;;;2.00;98.20;;;;;;4816422;29;20046;-76
2021/04/15 04:52:16;;;;;;;3.33;1.17;;;2.10;98.20;;;;;;4811343;29;20053;-76
2021/04/15 04:54:44;;;;;;;4.03;0.90;;;2.20;98.20;;;;;;4816614;29;20042;-76
2021/04/15 04:57:26;;;;;;;4.57;1.10;;;2.30;98.10;;;;;;4813657;29;20053;-76
2021/04/15 05:00:00;;;;;;;2.58;1.08;;;2.40;98.00;;;;;;4814256;29;20042;-76
2021/04/15 05:02:27;;;;;;;3.13;1.13;;;2.40;98.00;;;;;;4814797;29;20040;-76
2021/04/15 05:05:00;;;;;;;2.13;0.83;;;2.50;98.00;;;;;;4814866;29;20050;-76
2021/04/15 05:07:29;;;;;;;2.20;0.77;;;2.50;98.00;;;;;;4796573;29;20805;-77
2021/04/15 05:09:57;;;;;;;2.57;1.07;;;2.50;97.90;;;;;;4800048;29;20054;-77
2021/04/15 05:12:28;;;;;;;3.73;1.13;;;2.60;98.00;;;;;;4813435;29;20050;-78
2021/04/15 05:14:57;;;;;;;3.73;1.60;;;2.60;98.00;;;;;;4817394;29;20394;-78
2021/04/15 05:17:38;;;;;;;4.30;1.47;;;2.60;98.00;;;;;;4813112;29;20049;-77
2021/04/15 05:20:11;;;;;;;4.07;1.90;;;2.60;98.00;;;;;;4815345;29;20054;-77
2021/04/15 05:22:56;;;;;;;5.60;3.20;;;2.60;98.00;;;;;;4815968;29;20046;-77
2021/04/15 05:25:44;;;;;;;6.97;3.10;;;2.70;98.10;;;;;;4813081;29;20073;-77
2021/04/15 05:28:20;;;;;;;4.53;2.17;;;2.80;98.20;;;;;;4815596;29;20046;-77
2021/04/15 05:30:52;;;;;;;5.20;2.07;;;2.90;98.00;;;;;;4810707;29;20073;-78
2021/04/15 05:33:21;;;;;;;5.37;2.27;;;3.00;98.00;;;;;;4822294;29;20038;-78
2021/04/15 05:36:23;;;;;;;4.93;1.47;;;3.20;98.00;;;;;;4812500;29;20409;-78
2021/04/15 05:38:55;;;;;;;2.80;1.60;;;3.30;97.90;;;;;;4812331;29;20054;-78
2021/04/15 05:41:33;;;;;;;2.90;1.48;;;3.40;97.90;;;;;;4812595;29;20046;-78
2021/04/15 05:44:10;;;;;;;4.30;1.80;;;3.50;97.80;;;;;;4812573;29;20042;-77
2021/04/15 05:46:45;;;;;;;4.47;1.53;;;3.50;97.80;;;;;;4813009;29;20069;-77
2021/04/15 05:49:29;;;;;;;5.67;2.37;;;3.60;97.70;;;;;;4815517;29;20061;-77
2021/04/15 05:52:06;;;;;;;7.47;2.47;;;3.60;97.70;;;;;;4812050;29;20046;-78
2021/04/15 05:54:34;;;;;;;8.43;2.40;;;3.70;97.80;;;;;;4815810;29;20042;-78
2021/04/15 05:57:03;;;;;;;4.30;2.40;;;3.80;97.80;;;;;;4797176;29;20794;-77
2021/04/15 05:59:45;;;;;;;7.70;2.73;;;3.90;97.80;;;;;;4813943;29;20405;-78
2021/04/15 06:02:42;;;;;;;4.87;2.70;;;4.20;97.70;;;;;;4813560;29;20046;-76
2021/04/15 06:05:22;;;;;;;5.93;2.23;;;4.30;97.60;;;;;;4814644;29;20046;-77
2021/04/15 06:07:51;;;;;;;13.55;8.15;;;4.40;97.40;;;;;;4812916;29;20533;-76
2021/04/15 06:10:27;;;;;;;13.90;8.47;;;4.50;97.40;;;;;;4810975;29;20034;-76
2021/04/15 06:13:28;;;;;;;13.43;7.27;;;4.60;97.40;;;;;;4813575;29;20057;-77
2021/04/15 06:16:03;;;;;;;7.97;3.80;;;4.80;97.30;;;;;;4814260;29;20046;-77
2021/04/15 06:18:32;;;;;;;7.77;4.30;;;4.90;97.20;;;;;;4814722;29;20053;-77
2021/04/15 06:21:03;;;;;;;19.83;9.73;;;4.90;97.10;;;;;;4812492;29;20045;-77
2021/04/15 06:23:52;;;;;;;11.33;5.50;;;5.00;97.00;;;;;;4813565;29;20049;-77
2021/04/15 06:26:39;;;;;;;6.73;3.20;;;5.10;97.00;;;;;;4811508;29;20069;-77
2021/04/15 06:29:16;;;;;;;4.93;1.97;;;5.10;97.00;;;;;;4797522;29;20057;-77
2021/04/15 06:31:46;;;;;;;6.37;1.77;;;5.10;97.00;;;;;;4811762;29;20053;-77
2021/04/15 06:34:13;;;;;;;4.67;1.70;;;5.10;96.90;;;;;;4796408;29;20037;-78
2021/04/15 06:37:04;;;;;;;8.03;1.93;;;5.10;96.90;;;;;;4813477;29;20050;-78
2021/04/15 06:39:35;;;;;;;6.37;2.00;;;5.10;96.90;;;;;;4814877;29;20042;-78
2021/04/15 06:42:20;;;;;;;6.83;2.00;;;5.10;96.90;;;;;;4812705;29;20042;-77
2021/04/15 06:44:50;;;;;;;7.07;1.83;;;5.10;96.90;;;;;;4797217;29;20054;-77
2021/04/15 06:47:45;;;;;;;8.93;2.57;;;5.10;96.90;;;;;;4810446;29;20062;-77
2021/04/15 06:50:24;;;;;;;5.70;2.57;;;5.20;96.90;;;;;;4812979;29;20043;-77
2021/04/15 06:53:20;;;;;;;10.93;2.30;;;5.30;96.90;;;;;;4798981;29;20034;-77
2021/04/15 06:56:14;;;;;;;4.67;1.57;;;5.30;96.60;;;;;;4815103;29;20093;-77
2021/04/15 06:59:22;;;;;;;7.83;2.33;;;5.40;96.70;;;;;;4813805;29;20046;-76
2021/04/15 07:01:57;;;;;;;6.93;1.90;;;5.50;96.70;;;;;;4793304;29;20047;-76
2021/04/15 07:04:35;;;;;;;7.77;1.73;;;5.80;96.70;;;;;;4810272;29;20050;-76
2021/04/15 07:07:10;;;;;;;7.87;1.70;;;6.00;96.40;;;;;;4809292;29;20041;-77
2021/04/15 07:09:40;;;;;;;7.77;2.10;;;6.00;96.10;;;;;;4814016;29;20046;-77
2021/04/15 07:12:24;;;;;;;7.43;1.43;;;6.10;95.80;;;;;;4807271;29;20414;-76
2021/04/15 07:15:01;;;;;;;5.80;1.70;;;6.00;95.60;;;;;;4810392;29;20043;-76
2021/04/15 07:17:59;;;;;;;3.93;1.67;;;5.90;95.40;;;;;;4809418;29;20050;-76
2021/04/15 07:20:50;;;;;;;6.00;2.07;;;5.80;95.50;;;;;;4805838;29;20053;-76
2021/04/15 07:23:52;;;;;;;8.53;2.03;;;5.70;95.60;;;;;;4811230;29;20046;-77
2021/04/15 07:26:37;;;;;;;7.43;2.17;;;5.60;95.70;;;;;;4813321;29;20062;-76
2021/04/15 07:29:41;;;;;;;5.83;1.77;;;5.50;95.70;;;;;;4814652;29;20138;-76
2021/04/15 07:32:44;;;;;;;6.80;2.07;;;5.60;95.80;;;;;;4814726;29;20054;-77
2021/04/15 07:35:35;;;;;;;6.35;2.40;;;5.60;95.90;;;;;;4816185;29;20046;-76
2021/04/15 07:38:26;;;;;;;4.07;2.10;;;5.80;95.90;;;;;;4814275;29;20061;-77
2021/04/15 07:41:47;;;;;;;8.30;2.30;;;5.90;95.90;;;;;;4815441;29;20042;-76
2021/04/15 07:44:23;;;;;;;4.50;1.97;;;6.00;95.80;;;;;;4782933;29;20506;-77
2021/04/15 07:47:14;;;;;;;4.13;1.70;;;6.20;95.50;;;;;;4806987;29;20054;-77
2021/04/15 07:50:12;;;;;;;5.50;1.90;;;6.30;95.30;;;;;;4795064;29;20042;-77
2021/04/15 07:52:50;;;;;;;8.03;2.07;;;6.40;95.10;;;;;;4800477;29;20398;-77
2021/04/15 07:55:41;;;;;;;6.30;1.93;;;6.50;94.50;;;;;;4815712;29;20109;-77
2021/04/15 07:58:34;;;;;;;6.50;2.00;;;6.50;94.50;;;;;;4814527;29;20065;-77
2021/04/15 08:01:10;;;;;;;5.03;2.00;;;6.70;94.30;;;;;;4797689;29;20046;-77
2021/04/15 08:04:00;;;;;;;6.60;1.88;;;6.70;93.80;;;;;;4814404;29;20042;-76
2021/04/15 08:06:47;;;;;;;3.90;1.53;;;6.80;94.00;;;;;;4811236;29;20521;-77
2021/04/15 08:09:32;;;;;;;2.63;1.30;;;6.90;93.90;;;;;;4815760;29;20042;-77
2021/04/15 08:12:04;;;;;;;3.60;1.42;;;7.00;93.90;;;;;;4814393;29;20050;-77
2021/04/15 08:15:00;;;;;;;6.05;1.33;;;7.10;93.70;;;;;;4817465;29;20046;-77
2021/04/15 08:17:42;;;;;;;4.57;1.05;;;7.20;93.40;;;;;;4813234;29;20053;-77
2021/04/15 08:20:19;;;;;;;5.47;1.33;;;7.30;93.10;;;;;;4812315;29;20047;-77
2021/04/15 08:23:17;;;;;;;4.03;1.27;;;7.30;93.00;;;;;;4814157;29;20053;-77
2021/04/15 08:26:21;;;;;;;3.10;0.75;;;7.40;92.60;;;;;;4814101;29;20549;-77
2021/04/15 08:29:09;;;;;;;4.47;1.10;;;7.40;91.60;;;;;;4796079;29;20939;-77
2021/04/15 08:32:21;;;;;;;5.75;1.02;;;7.40;91.60;;;;;;4813849;29;20049;-78
2021/04/15 08:34:56;;;;;;;5.72;1.20;;;7.30;91.60;;;;;;4815682;29;20814;-77
2021/04/15 08:37:48;;;;;;;4.22;0.80;;;7.20;91.10;;;;;;4811473;29;20042;-77
2021/04/15 08:40:45;;;;;;;2.38;0.88;;;7.20;91.40;;;;;;4810411;29;20582;-76
2021/04/15 08:43:37;;;;;;;2.60;0.90;;;7.20;90.70;;;;;;4812703;29;20038;-77
2021/04/15 08:46:12;;;;;;;2.97;0.85;;;7.10;90.30;;;;;;4814879;29;20058;-77
2021/04/15 08:49:02;;;;;;;2.20;0.70;;;7.10;90.50;;;;;;4813392;29;20059;-77
2021/04/15 08:51:56;;;;;;;1.90;0.63;;;7.20;90.70;;;;;;4812000;29;20038;-78
2021/04/15 08:54:49;;;;;;;2.05;0.65;;;7.40;90.10;;;;;;4830120;29;20053;-77
2021/04/15 08:57:52;;;;;;;2.67;0.60;;;7.60;90.00;;;;;;4814110;29;20045;-77
2021/04/15 09:00:31;;;;;;;2.10;0.50;;;7.80;89.00;;;;;;4811123;29;20042;-77
2021/04/15 09:03:23;;;;;;;3.15;1.02;;;8.00;88.40;;;;;;4814569;29;20398;-77
2021/04/15 09:06:11;;;;;;;2.25;0.63;;;8.10;87.60;;;;;;4814682;29;20038;-77
2021/04/15 09:09:01;;;;;;;5.07;0.50;;;8.10;86.70;;;;;;4827158;29;20139;-77
2021/04/15 09:11:31;;;;;;;1.80;0.40;;;8.10;86.20;;;;;;4827762;29;20068;-75
2021/04/15 09:14:13;;;;;;;1.40;0.60;;;8.10;86.40;;;;;;4814698;29;20042;-77
2021/04/15 09:16:47;;;;;;;2.60;0.40;;;8.10;86.30;;;;;;4813481;29;20042;-75
2021/04/15 09:19:20;;;;;;;2.10;0.40;;;8.20;86.30;;;;;;4815977;29;20045;-76
2021/04/15 09:21:55;;;;;;;2.10;0.50;;;8.20;86.10;;;;;;4812182;29;20050;-78
2021/04/15 09:24:54;;;;;;;1.95;0.55;;;8.30;85.40;;;;;;4810554;29;20070;-77
2021/04/15 09:27:37;;;;;;;1.50;0.52;;;8.40;84.80;;;;;;4789500;29;20065;-76
2021/04/15 09:30:24;;;;;;;2.72;0.60;;;8.40;83.60;;;;;;4813942;29;20049;-77
2021/04/15 09:33:20;;;;;;;1.10;0.43;;;8.40;83.70;;;;;;4813817;29;20038;-77
2021/04/15 09:35:57;;;;;;;3.17;0.80;;;8.30;84.20;;;;;;4797936;29;20050;-77
2021/04/15 09:38:41;;;;;;;2.85;0.73;;;8.20;83.80;;;;;;4814755;29;20042;-77
2021/04/15 09:41:49;;;;;;;4.50;1.33;;;8.00;83.20;;;;;;4813019;29;20060;-77
2021/04/15 09:44:21;;;;;;;2.38;0.68;;;7.90;83.40;;;;;;4761912;30;20044;-76
2021/04/15 09:47:01;;;;;;;2.67;0.70;;;7.80;84.40;;;;;;4743600;30;20493;-77
2021/04/15 09:49:49;;;;;;;2.60;1.10;;;7.80;84.60;;;;;;4792160;29;20308;-77
2021/04/15 09:52:32;;;;;;;2.80;1.20;;;7.80;84.10;;;;;;4795756;29;20412;-77
2021/04/15 09:55:16;;;;;;;2.58;1.00;;;7.90;84.80;;;;;;4813020;29;20852;-77
2021/04/15 09:58:02;;;;;;;4.72;1.27;;;8.00;84.80;;;;;;4812751;29;20059;-77
2021/04/15 10:01:01;;;;;;;18.02;9.95;;;8.20;84.60;;;;;;4796672;29;20395;-77
2021/04/15 10:03:42;;;;;;;11.10;6.20;;;8.50;83.60;;;;;;4808200;29;20054;-77
2021/04/15 10:06:34;;;;;;;2.58;1.35;;;8.70;83.30;;;;;;4809804;29;20485;-77
2021/04/15 10:09:21;;;;;;;4.28;0.70;;;9.00;83.00;;;;;;4794991;29;20064;-76
2021/04/15 10:11:51;;;;;;;2.53;0.90;;;9.10;81.40;;;;;;4809510;29;20049;-77
2021/04/15 10:14:38;;;;;;;1.95;0.50;;;9.30;81.20;;;;;;4813062;29;20031;-76
2021/04/15 10:17:34;;;;;;;4.15;0.73;;;9.40;80.70;;;;;;4812864;29;20053;-77
2021/04/15 10:20:25;;;;;;;1.92;0.60;;;9.60;80.30;;;;;;4811111;29;20038;-77
2021/04/15 10:23:17;;;;;;;1.85;0.60;;;9.90;78.50;;;;;;4813678;29;20042;-77
2021/04/15 10:25:56;;;;;;;2.33;0.60;;;10.00;78.00;;;;;;4812628;29;20062;-77
2021/04/15 10:28:43;;;;;;;2.30;0.90;;;10.20;76.50;;;;;;4814876;29;20049;-77
2021/04/15 10:31:40;;;;;;;1.80;0.50;;;10.10;74.30;;;;;;4811743;29;20049;-77
2021/04/15 10:34:24;;;;;;;3.13;0.50;;;9.80;74.70;;;;;;4797748;29;20482;-77
2021/04/15 10:36:53;;;;;;;2.97;0.70;;;9.70;74.80;;;;;;4813340;29;20050;-77
2021/04/15 10:39:50;;;;;;;3.03;0.70;;;9.60;75.00;;;;;;4813176;29;20414;-77
2021/04/15 10:42:53;;;;;;;1.55;0.47;;;9.60;73.20;;;;;;4800413;29;20061;-77
2021/04/15 10:45:22;;;;;;;3.45;0.50;;;9.60;73.60;;;;;;4814881;29;20050;-77
2021/04/15 10:48:13;;;;;;;2.10;0.60;;;9.70;71.30;;;;;;4796855;29;20070;-77
2021/04/15 10:50:51;;;;;;;2.60;0.60;;;9.70;70.70;;;;;;4795495;29;20046;-77
2021/04/15 10:53:56;;;;;;;2.17;0.60;;;9.70;70.80;;;;;;4814057;29;20414;-77
2021/04/15 10:56:27;;;;;;;2.70;0.60;;;9.70;70.60;;;;;;4811463;29;20053;-78
2021/04/15 10:59:02;;;;;;;2.78;0.70;;;9.80;71.20;;;;;;4816172;29;20462;-79
2021/04/15 11:01:44;;;;;;;1.67;0.50;;;10.00;71.60;;;;;;4807103;29;20073;-80
2021/04/15 11:04:14;;;;;;;1.27;0.50;;;10.50;72.60;;;;;;4819746;29;20042;-80
2021/04/15 11:06:53;;;;;;;1.33;0.50;;;11.30;72.00;;;;;;4816488;29;20042;-79
2021/04/15 11:09:31;;;;;;;3.88;1.10;;;12.20;70.20;;;;;;4817664;29;20391;-81
2021/04/15 11:12:03;;;;;;;3.35;1.20;;;12.90;67.00;;;;;;4815942;29;20042;-79
2021/04/15 11:14:49;;;;;;;3.33;1.70;;;13.10;66.10;;;;;;4818003;29;20030;-79
2021/04/15 11:17:30;;;;;;;2.53;0.50;;;13.00;63.60;;;;;;4815491;29;20042;-79
2021/04/15 11:20:13;;;;;;;2.10;0.45;;;12.60;61.70;;;;;;4815761;29;20046;-79
2021/04/15 11:22:50;;;;;;;1.63;0.50;;;12.20;62.10;;;;;;4816655;29;20581;-79
2021/04/15 11:25:24;;;;;;;1.70;0.70;;;11.90;58.40;;;;;;4814115;29;20053;-79
2021/04/15 11:27:52;;;;;;;1.20;0.40;;;11.70;56.70;;;;;;4814261;29;20046;-79
2021/04/15 11:30:36;;;;;;;3.63;0.65;;;12.20;58.10;;;;;;4816697;29;20560;-78
2021/04/15 11:33:09;;;;;;;1.40;0.60;;;13.10;57.80;;;;;;4817840;29;20125;-79
2021/04/15 11:35:36;;;;;;;1.30;0.50;;;14.00;56.60;;;;;;4817741;29;20042;-78
2021/04/15 11:38:07;;;;;;;0.75;0.30;;;14.90;52.50;;;;;;4816531;29;20064;-79
2021/04/15 11:40:50;;;;;;;0.82;0.40;;;15.60;48.30;;;;;;4801166;29;20047;-79
2021/04/15 11:43:31;;;;;;;1.50;0.45;;;16.30;44.80;;;;;;4816211;29;20045;-79
2021/04/15 11:46:20;;;;;;;1.80;0.50;;;16.30;43.40;;;;;;4814601;29;20030;-79
2021/04/15 11:49:19;;;;;;;1.00;0.40;;;16.30;43.30;;;;;;4815036;29;20034;-79
2021/04/15 11:52:06;;;;;;;1.20;0.63;;;15.60;43.60;;;;;;4786560;29;20081;-79
2021/04/15 11:54:35;;;;;;;1.98;0.68;;;15.00;44.50;;;;;;4813819;29;20050;-79
2021/04/15 11:57:24;;;;;;;1.30;0.50;;;14.30;46.10;;;;;;4815631;29;20042;-79
2021/04/15 11:59:57;;;;;;;1.40;0.60;;;13.60;46.00;;;;;;4815356;29;20046;-79
2021/04/15 12:02:31;;;;;;;2.30;0.63;;;13.10;44.70;;;;;;4796684;29;20414;-79
2021/04/15 12:05:30;;;;;;;1.83;0.50;;;12.70;45.60;;;;;;4803747;29;20038;-79
2021/04/15 12:08:23;;;;;;;2.75;0.70;;;12.40;46.20;;;;;;4812067;29;20049;-79
2021/04/15 12:10:55;;;;;;;3.20;0.80;;;12.50;46.60;;;;;;4812895;29;20061;-79
2021/04/15 12:13:29;;;;;;;3.22;0.70;;;13.00;46.40;;;;;;4814843;29;20413;-79
2021/04/15 12:16:27;;;;;;;1.20;0.60;;;14.00;44.80;;;;;;4815748;29;20057;-79
2021/04/15 12:19:23;;;;;;;2.50;0.82;;;15.00;42.80;;;;;;4815525;29;20047;-79
2021/04/15 12:21:54;;;;;;;1.73;0.60;;;15.30;41.20;;;;;;4816311;29;20065;-79
2021/04/15 12:24:48;;;;;;;3.10;0.67;;;15.90;42.10;;;;;;4816269;29;20528;-79
2021/04/15 12:27:25;;;;;;;2.25;0.55;;;17.00;41.60;;;;;;4815679;29;20049;-79
2021/04/15 12:29:56;;;;;;;1.73;0.70;;;18.10;40.80;;;;;;4815828;29;20053;-79
2021/04/15 12:32:41;;;;;;;2.88;0.88;;;19.00;37.90;;;;;;4815190;29;20037;-80
2021/04/15 12:35:38;;;;;;;5.10;2.42;;;19.60;36.70;;;;;;4812695;29;20053;-80
2021/04/15 12:38:25;;;;;;;9.10;6.65;;;20.00;33.30;;;;;;4813578;29;20830;-80
2021/04/15 12:41:00;;;;;;;1.88;0.80;;;19.50;33.70;;;;;;4815082;29;20069;-81
2021/04/15 12:43:39;;;;;;;1.63;0.73;;;18.40;34.50;;;;;;4814932;29;20039;-78
2021/04/15 12:46:17;;;;;;;1.85;0.60;;;17.20;36.10;;;;;;4812768;29;20134;-78
2021/04/15 12:48:54;;;;;;;2.17;0.80;;;16.20;38.60;;;;;;4810646;29;20045;-78
2021/04/15 12:51:23;;;;;;;2.30;0.60;;;15.30;39.60;;;;;;4810522;29;20042;-78
2021/04/15 12:53:51;;;;;;;2.40;0.60;;;14.60;39.90;;;;;;4816060;29;20037;-78
2021/04/15 12:56:29;;;;;;;1.65;0.60;;;14.00;41.20;;;;;;4813633;29;20049;-78
2021/04/15 12:58:56;;;;;;;4.43;0.80;;;13.50;42.70;;;;;;4813748;29;20038;-78
2021/04/15 13:01:25;;;;;;;2.05;0.70;;;13.10;43.30;;;;;;4812580;29;20053;-78
2021/04/15 13:03:51;;;;;;;3.15;0.70;;;12.90;43.90;;;;;;4815866;29;20049;-78
2021/04/15 13:06:20;;;;;;;4.22;0.75;;;12.70;44.00;;;;;;4798969;29;20607;-78
2021/04/15 13:08:56;;;;;;;2.38;0.93;;;12.50;44.00;;;;;;4810783;29;20057;-78
2021/04/15 13:11:22;;;;;;;2.22;0.52;;;12.40;44.40;;;;;;4808079;29;20054;-78
2021/04/15 13:13:50;;;;;;;1.88;0.60;;;12.50;45.00;;;;;;4798223;29;20050;-78
2021/04/15 13:16:32;;;;;;;1.83;0.60;;;12.60;45.00;;;;;;4813072;29;20042;-78
2021/04/15 13:19:23;;;;;;;;;;;12.80;44.80;;;;;;4814694;29;20608;-78
2021/04/15 13:22:07;;;;;;;3.20;0.50;;;12.90;44.00;;;;;;4810745;29;19923;-79
2021/04/15 13:24:46;;;;;;;3.47;0.60;;;12.90;43.70;;;;;;4812049;29;20058;-78
2021/04/15 13:27:35;;;;;;;3.95;0.50;;;12.90;44.80;;;;;;4795658;29;20049;-78
2021/04/15 13:30:17;;;;;;;1.25;0.40;;;12.90;43.80;;;;;;4807561;29;20046;-78
2021/04/15 13:33:15;;;;;;;1.63;0.50;;;13.20;44.90;;;;;;4810824;29;20043;-78
2021/04/15 13:36:03;;;;;;;1.90;0.60;;;14.70;43.00;;;;;;4794953;29;20054;-78
2021/04/15 13:38:31;;;;;;;2.15;0.57;;;16.40;39.60;;;;;;4812855;29;20042;-78
2021/04/15 13:40:59;;;;;;;1.38;0.40;;;17.20;37.40;;;;;;4810814;29;20049;-78
2021/04/15 13:43:32;;;;;;;3.00;0.57;;;17.70;37.00;;;;;;4812367;29;20042;-78
2021/04/15 13:46:34;;;;;;;;;;;17.60;35.60;;;;;;4813086;29;20046;-78
2021/04/15 13:49:26;;;;;;;2.70;0.52;;;17.10;35.00;;;;;;4798043;29;19920;-78
2021/04/15 13:52:26;;;;;;;2.05;0.65;;;15.80;35.70;;;;;;4811101;29;20402;-78
2021/04/15 13:54:52;;;;;;;3.20;0.60;;;14.80;37.20;;;;;;4814126;29;20054;-78
2021/04/15 13:57:22;;;;;;;2.88;0.80;;;13.90;39.90;;;;;;4811191;29;20049;-78
2021/04/15 14:00:06;;;;;;;2.55;0.65;;;13.50;41.30;;;;;;4797007;29;20053;-79
2021/04/15 14:02:41;;;;;;;2.65;0.52;;;13.10;40.90;;;;;;4814027;29;20069;-78